Terminal Aerodrome Forecast
Issued by NWS

Home | Current Version | Previous Version | Text Only | Print | Product List | Glossary On
Versions: 1 2 3 4 5 6 7 8 9 10 11 12 13 14 15 16 17 18 19 20 21 22 23 24 25 26 27 28 29 30 31 32 33 34 35 36
594
FTUS44 KLZK 241740
TAFADF
TAF
KADF 241740Z 2418/2518 17009G16KT P6SM BKN250
     FM250100 17008KT P6SM BKN250
     FM251000 22006KT P6SM BKN020 BKN250
     FM251500 26007KT P6SM SCT035 BKN250=

USA.gov is the U.S. government's official web portal to all federal, state and local government web resources and services.